createdAt,value
2022-12-11T00:00:50.605Z,100183.94
2022-12-11T00:02:52.407Z,100184.34
2022-12-11T00:04:54.146Z,100183.03
2022-12-11T00:06:56.232Z,100168.59
2022-12-11T00:08:58.019Z,100187.75
2022-12-11T00:10:59.937Z,100181.50
2022-12-11T00:13:01.788Z,100166.66
2022-12-11T00:15:03.844Z,100191.16
2022-12-11T00:17:05.571Z,100185.09
2022-12-11T00:19:08.207Z,100181.84
2022-12-11T00:21:13.477Z,100174.97
2022-12-11T00:23:15.252Z,100153.09
2022-12-11T00:25:17.189Z,100176.41
2022-12-11T00:27:19.177Z,100158.38
2022-12-11T00:29:20.829Z,100181.84
2022-12-11T00:31:23.602Z,100179.16
2022-12-11T00:33:27.375Z,100171.03
2022-12-11T00:35:29.074Z,100176.69
2022-12-11T00:37:30.911Z,100173.06
2022-12-11T00:39:32.729Z,100169.13
2022-12-11T00:41:34.604Z,100154.00
2022-12-11T00:43:36.591Z,100151.00
2022-12-11T00:45:40.689Z,100165.56
2022-12-11T00:47:42.370Z,100155.19
2022-12-11T00:49:49.560Z,100166.53
2022-12-11T00:51:51.841Z,100163.06
2022-12-11T00:53:53.584Z,100169.28
2022-12-11T00:55:55.367Z,100176.75
2022-12-11T00:57:57.969Z,100176.75
2022-12-11T00:59:59.685Z,100183.97
2022-12-11T01:02:01.420Z,100183.56
2022-12-11T01:04:03.417Z,100187.16
2022-12-11T01:06:06.056Z,100187.91
2022-12-11T01:08:07.972Z,100186.50
2022-12-11T01:10:14.984Z,100190.94
2022-12-11T01:12:16.720Z,100190.41
2022-12-11T01:14:18.879Z,100170.44
2022-12-11T01:16:20.871Z,100188.38
2022-12-11T01:18:22.790Z,100187.97
2022-12-11T01:20:26.784Z,100183.19
2022-12-11T01:22:28.900Z,100177.84
2022-12-11T01:24:30.599Z,100168.94
2022-12-11T01:26:32.322Z,100156.53
2022-12-11T01:28:34.264Z,100166.00
2022-12-11T01:30:37.028Z,100177.69
2022-12-11T01:32:38.872Z,100157.06
2022-12-11T01:34:40.685Z,100160.41
2022-12-11T01:36:42.395Z,100162.41
2022-12-11T01:38:45.553Z,100122.44
2022-12-11T01:40:51.575Z,100155.38
2022-12-11T01:42:53.266Z,100158.00
2022-12-11T01:45:16.852Z,100154.34
2022-12-11T01:47:18.712Z,100143.72
2022-12-11T01:49:23.281Z,100144.31
2022-12-11T01:51:25.276Z,100133.25
2022-12-11T01:53:41.161Z,100128.56
2022-12-11T01:55:43.282Z,100134.91
2022-12-11T01:57:48.889Z,100139.53
2022-12-11T01:59:50.704Z,100123.03
2022-12-11T02:02:04.710Z,100134.75
2022-12-11T02:04:08.800Z,100120.00
2022-12-11T02:06:31.004Z,100131.56
2022-12-11T02:08:32.788Z,100123.53
2022-12-11T02:10:49.815Z,100127.88
2022-12-11T02:12:59.523Z,100127.38
2022-12-11T02:15:13.518Z,100136.28
2022-12-11T02:17:36.531Z,100130.81
2022-12-11T02:19:58.096Z,100109.94
2022-12-11T02:22:07.881Z,100130.97
2022-12-11T02:24:46.584Z,100128.63
2022-12-11T02:27:19.893Z,100105.59
2022-12-11T02:29:31.131Z,100125.00
2022-12-11T02:31:47.795Z,100125.34
2022-12-11T02:33:53.690Z,100126.53
2022-12-11T02:35:56.347Z,100125.53
2022-12-11T02:38:03.200Z,100107.78
2022-12-11T02:40:11.243Z,100121.09
2022-12-11T02:42:15.023Z,100124.09
2022-12-11T02:44:22.367Z,100115.13
2022-12-11T02:46:26.143Z,100099.56
2022-12-11T02:48:27.879Z,100105.25
2022-12-11T02:50:30.610Z,100098.03
2022-12-11T02:52:33.955Z,100109.00
2022-12-11T02:54:39.697Z,100100.72
2022-12-11T02:57:03.061Z,100101.53
2022-12-11T02:59:14.088Z,100088.63
2022-12-11T03:01:16.448Z,100097.53
2022-12-11T03:03:18.602Z,100089.47
2022-12-11T03:05:20.666Z,100066.78
2022-12-11T03:07:27.461Z,99948.59
2022-12-11T03:09:29.391Z,100063.00
2022-12-11T03:11:31.224Z,100067.69
2022-12-11T03:13:33.007Z,100081.53
2022-12-11T03:16:32.175Z,100046.56
2022-12-11T03:18:56.561Z,100074.06
2022-12-11T03:21:04.028Z,100076.75
2022-12-11T03:23:28.378Z,100058.06
2022-12-11T03:25:54.223Z,100080.94
2022-12-11T03:27:58.430Z,100076.59
2022-12-11T03:30:12.973Z,100069.19
2022-12-11T03:32:19.596Z,100062.00
2022-12-11T03:34:29.911Z,100066.19
2022-12-11T03:36:36.646Z,100078.94
2022-12-11T03:38:54.467Z,100080.94
2022-12-11T03:41:00.980Z,100071.97
2022-12-11T03:43:05.410Z,100072.03
2022-12-11T03:45:08.367Z,100056.31
2022-12-11T03:47:11.391Z,100076.16
2022-12-11T03:49:21.378Z,100067.44
2022-12-11T03:51:23.939Z,100091.66
2022-12-11T03:53:27.709Z,100081.44
2022-12-11T03:55:32.584Z,100084.47
2022-12-11T03:57:37.727Z,100091.66
2022-12-11T03:59:39.830Z,100089.16
2022-12-11T04:01:41.661Z,100068.19
2022-12-11T04:03:43.473Z,100097.19
2022-12-11T04:05:50.565Z,100101.47
2022-12-11T04:07:52.413Z,100100.03
2022-12-11T04:09:54.889Z,100099.19
2022-12-11T04:11:56.575Z,100094.06
2022-12-11T04:13:58.301Z,100101.19
2022-12-11T04:16:00.002Z,100096.25
2022-12-11T04:18:01.706Z,100093.09
2022-12-11T04:20:05.501Z,100075.63
2022-12-11T04:22:07.239Z,100075.53
2022-12-11T04:24:09.189Z,100094.50
2022-12-11T04:26:14.917Z,100093.25
2022-12-11T04:28:16.622Z,100071.78
2022-12-11T04:30:21.887Z,100090.81
2022-12-11T04:32:23.711Z,100092.50
2022-12-11T04:34:25.510Z,100073.03
2022-12-11T04:36:27.259Z,100090.00
2022-12-11T04:38:29.141Z,100071.28
2022-12-11T04:40:30.876Z,100045.09
2022-12-11T04:42:32.796Z,100081.25
2022-12-11T04:44:34.795Z,100094.50
2022-12-11T04:46:36.572Z,100071.19
2022-12-11T04:48:39.187Z,100063.66
2022-12-11T04:50:41.058Z,100066.09
2022-12-11T04:52:43.390Z,100074.06
2022-12-11T04:54:45.167Z,100075.22
2022-12-11T04:56:47.041Z,100078.16
2022-12-11T04:58:48.731Z,100075.47
2022-12-11T05:00:50.836Z,100046.06
2022-12-11T05:02:52.831Z,100072.47
2022-12-11T05:04:54.626Z,100066.25
2022-12-11T05:06:56.303Z,100067.25
2022-12-11T05:08:58.141Z,100060.97
2022-12-11T05:11:02.835Z,100061.06
2022-12-11T05:13:04.690Z,100055.34
2022-12-11T05:15:07.056Z,100063.16
2022-12-11T05:17:08.722Z,100077.06
2022-12-11T05:19:10.756Z,100061.72
2022-12-11T05:21:14.726Z,100063.34
2022-12-11T05:23:16.392Z,100039.69
2022-12-11T05:25:18.289Z,100050.06
2022-12-11T05:27:20.090Z,100059.38
2022-12-11T05:29:21.770Z,100047.72
2022-12-11T05:31:26.724Z,100050.19
2022-12-11T05:33:30.634Z,100048.72
2022-12-11T05:35:32.325Z,100042.53
2022-12-11T05:37:34.483Z,100037.34
2022-12-11T05:39:36.469Z,100021.84
2022-12-11T05:41:38.393Z,100038.19
2022-12-11T05:43:40.238Z,100037.84
2022-12-11T05:45:42.054Z,100036.31
2022-12-11T05:47:43.747Z,100033.56
2022-12-11T05:49:45.874Z,100026.78
2022-12-11T05:51:47.921Z,100028.31
2022-12-11T05:53:51.154Z,100003.31
2022-12-11T05:55:53.003Z,100028.38
2022-12-11T05:57:54.751Z,100025.28
2022-12-11T05:59:56.455Z,100029.03
2022-12-11T06:01:58.355Z,99999.78
2022-12-11T06:04:00.930Z,100030.38
2022-12-11T06:06:04.600Z,100031.97
2022-12-11T06:08:06.707Z,100030.81
2022-12-11T06:10:09.117Z,100033.31
2022-12-11T06:12:10.820Z,100026.78
2022-12-11T06:14:12.586Z,100037.50
2022-12-11T06:16:14.896Z,100029.06
2022-12-11T06:18:16.616Z,100034.84
2022-12-11T06:20:18.430Z,99999.91
2022-12-11T06:22:20.387Z,100027.63
2022-12-11T06:24:22.103Z,99995.78
2022-12-11T06:26:24.312Z,100037.06
2022-12-11T06:28:26.249Z,100033.06
2022-12-11T06:30:37.389Z,100005.31
2022-12-11T06:32:41.092Z,100026.75
2022-12-11T06:34:42.875Z,100002.31
2022-12-11T06:36:44.554Z,99996.94
2022-12-11T06:38:47.214Z,100021.84
2022-12-11T06:40:59.830Z,100011.19
2022-12-11T06:43:01.554Z,100017.91
2022-12-11T06:45:04.187Z,100016.16
2022-12-11T06:47:05.960Z,100011.88
2022-12-11T06:49:07.669Z,100001.06
2022-12-11T06:51:13.561Z,100011.97
2022-12-11T06:53:15.643Z,100008.38
2022-12-11T06:55:17.370Z,100008.44
2022-12-11T06:57:19.689Z,100009.03
2022-12-11T06:59:21.571Z,99988.44
2022-12-11T07:01:26.292Z,99990.00
2022-12-11T07:03:28.891Z,99990.59
2022-12-11T07:05:32.182Z,100013.72
2022-12-11T07:07:33.888Z,100013.03
2022-12-11T07:09:38.275Z,100018.94
2022-12-11T07:11:40.131Z,100014.69
2022-12-11T07:13:42.297Z,100006.25
2022-12-11T07:15:44.133Z,99946.81
2022-12-11T07:17:45.990Z,100019.88
2022-12-11T07:19:47.870Z,100012.31
2022-12-11T07:21:49.545Z,100011.81
2022-12-11T07:23:51.385Z,100024.84
2022-12-11T07:25:53.122Z,100020.38
2022-12-11T07:27:54.849Z,100008.56
2022-12-11T07:29:56.622Z,100024.50
2022-12-11T07:31:58.476Z,100021.84
2022-12-11T07:34:02.509Z,99996.16
2022-12-11T07:36:06.620Z,100026.41
2022-12-11T07:38:08.739Z,100022.59
2022-12-11T07:40:11.303Z,99993.81
2022-12-11T07:42:12.985Z,100008.00
2022-12-11T07:44:15.861Z,100022.53
2022-12-11T07:46:20.966Z,100028.06
2022-12-11T07:48:22.953Z,100007.34
2022-12-11T07:50:25.011Z,100027.41
2022-12-11T07:52:26.711Z,100024.88
2022-12-11T07:54:29.000Z,99990.63
2022-12-11T07:56:31.411Z,100009.91
2022-12-11T07:58:33.117Z,100001.69
2022-12-11T08:00:35.026Z,99996.44
2022-12-11T08:02:37.871Z,100014.97
2022-12-11T08:04:39.635Z,100005.06
2022-12-11T08:06:42.652Z,99992.66
2022-12-11T08:08:44.955Z,99968.47
2022-12-11T08:10:46.682Z,100008.34
2022-12-11T08:12:48.507Z,99986.81
2022-12-11T08:14:50.356Z,99951.13
2022-12-11T08:16:52.099Z,99990.75
2022-12-11T08:18:53.789Z,99979.94
2022-12-11T08:20:55.563Z,100003.75
2022-12-11T08:22:59.312Z,100003.47
2022-12-11T08:25:01.149Z,99999.78
2022-12-11T08:27:03.129Z,99995.88
2022-12-11T08:29:04.848Z,100004.66
2022-12-11T08:31:08.960Z,99997.72
2022-12-11T08:33:10.803Z,99999.25
2022-12-11T08:35:12.615Z,99994.44
2022-12-11T08:37:14.598Z,99998.69
2022-12-11T08:39:16.570Z,100001.00
2022-12-11T08:41:22.708Z,99993.94
2022-12-11T08:43:24.771Z,99998.47
2022-12-11T08:45:26.506Z,99982.03
2022-12-11T08:47:28.227Z,100001.06
2022-12-11T08:49:34.452Z,99984.88
2022-12-11T08:51:36.557Z,99994.13
2022-12-11T08:53:38.393Z,99974.69
2022-12-11T08:55:40.194Z,99992.72
2022-12-11T08:57:42.304Z,99979.81
2022-12-11T08:59:44.007Z,99974.84
2022-12-11T09:01:45.736Z,99987.94
2022-12-11T09:03:48.128Z,99992.94
2022-12-11T09:05:49.961Z,99977.72
2022-12-11T09:07:51.707Z,99982.81
2022-12-11T09:09:56.930Z,99967.47
2022-12-11T09:11:58.671Z,99988.00
2022-12-11T09:14:06.712Z,99984.88
2022-12-11T09:16:15.380Z,99995.97
2022-12-11T09:18:17.149Z,99985.22
2022-12-11T09:20:18.955Z,99976.47
2022-12-11T09:22:20.788Z,99967.56
2022-12-11T09:24:22.459Z,99951.13
2022-12-11T09:26:25.263Z,99968.25
2022-12-11T09:28:26.980Z,99957.09
2022-12-11T09:30:28.684Z,99960.69
2022-12-11T09:32:30.418Z,99940.03
2022-12-11T09:34:32.288Z,99955.00
2022-12-11T09:36:34.760Z,99943.91
2022-12-11T09:38:36.790Z,99932.41
2022-12-11T09:40:42.624Z,99940.53
2022-12-11T09:42:44.305Z,99932.72
2022-12-11T09:44:56.046Z,99934.50
2022-12-11T09:46:58.997Z,99930.06
2022-12-11T09:49:03.454Z,99899.00
2022-12-11T09:51:16.828Z,99901.84
2022-12-11T09:53:34.446Z,99912.91
2022-12-11T09:55:48.392Z,99892.50
2022-12-11T09:58:11.047Z,99911.16
2022-12-11T10:00:16.334Z,99913.41
2022-12-11T10:02:35.242Z,99914.25
2022-12-11T10:04:53.041Z,99889.78
2022-12-11T10:07:21.798Z,99892.91
2022-12-11T10:09:48.717Z,99894.66
2022-12-11T10:12:04.255Z,99891.97
2022-12-11T10:14:05.893Z,99907.03
2022-12-11T10:16:18.377Z,99909.47
2022-12-11T10:18:23.393Z,99895.63
2022-12-11T10:20:29.876Z,99901.84
2022-12-11T10:22:33.811Z,99905.66
2022-12-11T10:27:33.339Z,99896.63
2022-12-11T10:29:35.025Z,99892.28
2022-12-11T10:31:58.687Z,99883.59
2022-12-11T10:34:22.961Z,99889.59
2022-12-11T10:36:39.384Z,99878.34
2022-12-11T10:38:44.437Z,99869.03
2022-12-11T10:40:51.315Z,99823.31
2022-12-11T10:42:54.335Z,99829.13
2022-12-11T10:45:04.928Z,99863.00
2022-12-11T10:47:11.587Z,99861.59
2022-12-11T10:49:28.488Z,99848.53
2022-12-11T10:51:33.151Z,99852.63
2022-12-11T10:53:35.745Z,99835.72
2022-12-11T10:55:44.932Z,99827.53
2022-12-11T10:57:55.855Z,99850.63
2022-12-11T10:59:58.634Z,99831.22
2022-12-11T11:02:00.750Z,99809.72
2022-12-11T11:04:33.625Z,99840.19
2022-12-11T11:06:35.316Z,99831.72
2022-12-11T11:08:47.004Z,99823.09
2022-12-11T11:11:00.600Z,99832.56
2022-12-11T11:13:02.760Z,99828.44
2022-12-11T11:15:10.689Z,99814.81
2022-12-11T11:17:17.827Z,99821.84
2022-12-11T11:19:47.205Z,99826.44
2022-12-11T11:21:56.461Z,99796.09
2022-12-11T11:23:58.288Z,99817.91
2022-12-11T11:26:02.708Z,99816.44
2022-12-11T11:28:18.129Z,99818.50
2022-12-11T11:30:26.564Z,99809.47
2022-12-11T11:32:36.529Z,99803.63
2022-12-11T11:34:38.234Z,99780.09
2022-12-11T11:36:40.144Z,99769.00
2022-12-11T11:38:50.447Z,99796.66
2022-12-11T11:41:15.058Z,99796.59
2022-12-11T11:43:23.015Z,99791.34
2022-12-11T11:45:31.888Z,99783.44
2022-12-11T11:47:55.742Z,99790.56
2022-12-11T11:50:08.558Z,99756.59
2022-12-11T11:52:24.556Z,99776.25
2022-12-11T11:54:39.944Z,99748.31
2022-12-11T11:56:42.500Z,99774.81
2022-12-11T11:58:50.122Z,99771.81
2022-12-11T12:00:54.612Z,99769.50
2022-12-11T12:03:17.232Z,99772.66
2022-12-11T12:05:27.059Z,99768.28
2022-12-11T12:07:42.432Z,99750.56
2022-12-11T12:10:08.782Z,99764.59
2022-12-11T12:12:29.732Z,99758.75
2022-12-11T12:14:52.471Z,99760.41
2022-12-11T12:17:09.642Z,99750.25
2022-12-11T12:19:47.162Z,99734.91
2022-12-11T12:21:52.158Z,99737.75
2022-12-11T12:24:03.335Z,99756.88
2022-12-11T12:26:20.271Z,99741.78
2022-12-11T12:28:38.324Z,99750.41
2022-12-11T12:31:04.923Z,99750.53
2022-12-11T12:33:23.167Z,99719.50
2022-12-11T12:35:42.270Z,99743.53
2022-12-11T12:38:46.974Z,99750.81
2022-12-11T12:40:56.243Z,99744.88
2022-12-11T12:43:23.841Z,99734.66
2022-12-11T12:45:52.371Z,99733.06
2022-12-11T12:47:54.228Z,99735.00
2022-12-11T12:49:58.406Z,99710.94
2022-12-11T12:52:01.208Z,99722.16
2022-12-11T12:54:10.528Z,99725.25
2022-12-11T12:56:14.859Z,99731.50
2022-12-11T12:58:40.591Z,99730.50
2022-12-11T13:00:43.820Z,99737.59
2022-12-11T13:02:51.979Z,99736.66
2022-12-11T13:05:06.179Z,99735.06
2022-12-11T13:07:18.275Z,99734.34
2022-12-11T13:09:24.334Z,99730.28
2022-12-11T13:11:34.626Z,99727.13
2022-12-11T13:13:40.160Z,99706.91
2022-12-11T13:15:42.884Z,99732.66
2022-12-11T13:17:44.757Z,99733.47
2022-12-11T13:19:46.643Z,99724.88
2022-12-11T13:22:18.051Z,99729.66
2022-12-11T13:24:19.764Z,99726.78
2022-12-11T13:26:31.791Z,99737.34
2022-12-11T13:28:51.710Z,99726.91
2022-12-11T13:31:02.071Z,99719.44
2022-12-11T13:33:17.639Z,99714.53
2022-12-11T13:35:19.405Z,99706.16
2022-12-11T13:37:31.721Z,99701.56
2022-12-11T13:39:37.748Z,99721.59
2022-12-11T13:41:40.542Z,99712.00
2022-12-11T13:43:45.654Z,99720.13
2022-12-11T13:45:50.970Z,99718.03
2022-12-11T13:47:52.907Z,99704.94
2022-12-11T13:50:00.845Z,99693.25
2022-12-11T13:52:03.178Z,99721.91
2022-12-11T13:54:17.486Z,99694.53
2022-12-11T13:56:22.129Z,99726.47
2022-12-11T13:58:24.489Z,99706.53
2022-12-11T14:00:31.285Z,99713.88
2022-12-11T14:02:38.691Z,99712.81
2022-12-11T14:04:40.943Z,99720.03
2022-12-11T14:06:42.827Z,99702.56
2022-12-11T14:08:45.500Z,99710.94
2022-12-11T14:10:52.937Z,99702.16
2022-12-11T14:13:17.902Z,99726.13
2022-12-11T14:15:19.957Z,99725.09
2022-12-11T14:17:31.440Z,99711.16
2022-12-11T14:19:33.437Z,99718.75
2022-12-11T14:21:36.932Z,99722.72
2022-12-11T14:23:38.458Z,99729.75
2022-12-11T14:25:40.175Z,99731.69
2022-12-11T14:27:48.132Z,99719.88
2022-12-11T14:29:50.554Z,99678.00
2022-12-11T14:31:53.582Z,99689.28
2022-12-11T14:34:01.401Z,99720.28
2022-12-11T14:36:04.573Z,99705.16
2022-12-11T14:38:29.322Z,99712.84
2022-12-11T14:40:44.066Z,99681.28
2022-12-11T14:43:00.425Z,99691.22
2022-12-11T14:45:05.644Z,99707.94
2022-12-11T14:47:15.860Z,99675.50
2022-12-11T14:49:35.979Z,99701.06
2022-12-11T14:51:40.957Z,99702.56
2022-12-11T14:53:47.273Z,99682.00
2022-12-11T14:55:50.743Z,99657.78
2022-12-11T14:57:55.044Z,99687.38
2022-12-11T14:59:57.868Z,99691.22
2022-12-11T15:02:03.176Z,99663.38
2022-12-11T15:04:29.540Z,99666.56
2022-12-11T15:06:33.993Z,99675.00
2022-12-11T15:08:38.561Z,99675.41
2022-12-11T15:11:05.484Z,99659.44
2022-12-11T15:13:09.237Z,99686.94
2022-12-11T15:15:16.970Z,99685.19
2022-12-11T15:17:19.886Z,99667.22
2022-12-11T15:19:35.000Z,99667.16
2022-12-11T15:21:38.019Z,99687.44
2022-12-11T15:23:51.279Z,99644.91
2022-12-11T15:25:55.962Z,99650.84
2022-12-11T15:27:59.833Z,99686.28
2022-12-11T15:30:02.119Z,99677.03
2022-12-11T15:32:15.205Z,99692.56
2022-12-11T15:34:23.802Z,99689.06
2022-12-11T15:36:34.779Z,99681.03
2022-12-11T15:38:38.991Z,99670.50
2022-12-11T15:40:40.720Z,99684.94
2022-12-11T15:42:42.914Z,99675.84
2022-12-11T15:44:45.175Z,99669.41
2022-12-11T15:46:46.938Z,99662.38
2022-12-11T15:48:49.880Z,99652.09
2022-12-11T15:50:52.089Z,99672.91
2022-12-11T15:52:55.425Z,99677.09
2022-12-11T15:54:57.098Z,99652.59
2022-12-11T15:57:03.987Z,99665.75
2022-12-11T15:59:06.297Z,99641.69
2022-12-11T16:01:08.087Z,99664.31
2022-12-11T16:03:12.405Z,99652.03
2022-12-11T16:05:15.020Z,99663.56
2022-12-11T16:07:20.148Z,99662.38
2022-12-11T16:09:21.992Z,99640.66
2022-12-11T16:11:23.752Z,99653.28
2022-12-11T16:13:25.427Z,99652.16
2022-12-11T16:15:27.507Z,99612.41
2022-12-11T16:17:29.200Z,99659.13
2022-12-11T16:19:30.887Z,99661.06
2022-12-11T16:21:32.862Z,99651.03
2022-12-11T16:23:34.539Z,99652.59
2022-12-11T16:25:41.083Z,99646.59
2022-12-11T16:27:42.922Z,99664.78
2022-12-11T16:29:44.630Z,99674.00
2022-12-11T16:31:46.369Z,99677.59
2022-12-11T16:33:48.728Z,99663.38
2022-12-11T16:35:50.399Z,99661.78
2022-12-11T16:37:53.379Z,99660.31
2022-12-11T16:39:55.390Z,99665.41
2022-12-11T16:41:57.071Z,99666.88
2022-12-11T16:44:01.419Z,99673.13
2022-12-11T16:46:03.903Z,99641.47
2022-12-11T16:48:05.859Z,99663.13
2022-12-11T16:50:08.073Z,99647.28
2022-12-11T16:52:10.052Z,99635.31
2022-12-11T16:54:12.424Z,99653.28
2022-12-11T16:56:14.447Z,99656.94
2022-12-11T16:58:16.258Z,99619.25
2022-12-11T17:00:18.168Z,99638.88
2022-12-11T17:02:20.835Z,99655.47
2022-12-11T17:04:22.732Z,99606.44
2022-12-11T17:06:24.406Z,99614.56
2022-12-11T17:08:26.212Z,99640.50
2022-12-11T17:10:28.050Z,99608.81
2022-12-11T17:12:30.518Z,99647.13
2022-12-11T17:14:32.305Z,99653.56
2022-12-11T17:16:34.553Z,99617.91
2022-12-11T17:18:36.565Z,99639.03
2022-12-11T17:20:43.450Z,99630.84
2022-12-11T17:22:45.264Z,99641.31
2022-12-11T17:24:47.039Z,99628.75
2022-12-11T17:26:48.783Z,99611.72
2022-12-11T17:28:50.706Z,99643.22
2022-12-11T17:30:52.501Z,99628.44
2022-12-11T17:32:54.215Z,99601.28
2022-12-11T17:34:56.530Z,99617.50
2022-12-11T17:36:58.239Z,99623.09
2022-12-11T17:38:59.918Z,99639.88
2022-12-11T17:41:06.748Z,99622.50
2022-12-11T17:43:09.519Z,99645.81
2022-12-11T17:45:11.650Z,99630.81
2022-12-11T17:47:13.860Z,99620.22
2022-12-11T17:49:15.598Z,99636.53
2022-12-11T17:51:18.506Z,99623.00
2022-12-11T17:53:22.035Z,99648.53
2022-12-11T17:55:23.665Z,99650.22
2022-12-11T17:57:25.394Z,99634.84
2022-12-11T17:59:27.291Z,99651.47
2022-12-11T18:01:31.056Z,99646.38
2022-12-11T18:03:32.905Z,99629.66
2022-12-11T18:05:35.699Z,99647.84
2022-12-11T18:07:37.911Z,99623.72
2022-12-11T18:09:42.725Z,99653.16
2022-12-11T18:11:44.645Z,99648.63
2022-12-11T18:13:47.117Z,99633.78
2022-12-11T18:16:03.431Z,99643.38
2022-12-11T18:18:06.432Z,99624.00
2022-12-11T18:20:11.462Z,99643.53
2022-12-11T18:22:13.975Z,99617.34
2022-12-11T18:24:15.909Z,99638.56
2022-12-11T18:26:19.592Z,99651.22
2022-12-11T18:28:21.446Z,99612.44
2022-12-11T18:30:24.597Z,99646.94
2022-12-11T18:32:26.363Z,99650.28
2022-12-11T18:34:28.092Z,99638.53
2022-12-11T18:36:30.079Z,99637.69
2022-12-11T18:38:31.856Z,99652.13
2022-12-11T18:40:33.586Z,99625.09
2022-12-11T18:42:35.627Z,99599.97
2022-12-11T18:44:37.340Z,99642.50
2022-12-11T18:46:39.210Z,99624.84
2022-12-11T18:48:42.170Z,99638.34
2022-12-11T18:50:49.110Z,99643.34
2022-12-11T18:52:55.655Z,99642.50
2022-12-11T18:54:57.859Z,99636.69
2022-12-11T18:56:59.687Z,99613.22
2022-12-11T18:59:01.648Z,99649.44
2022-12-11T19:01:29.853Z,99639.53
2022-12-11T19:03:32.212Z,99615.66
2022-12-11T19:05:35.312Z,99622.81
2022-12-11T19:07:37.323Z,99618.47
2022-12-11T19:09:42.416Z,99617.47
2022-12-11T19:11:47.656Z,99638.19
2022-12-11T19:13:50.725Z,99604.69
2022-12-11T19:15:52.501Z,99626.50
2022-12-11T19:17:54.281Z,99608.81
2022-12-11T19:19:56.031Z,99637.47
2022-12-11T19:21:57.734Z,99625.25
2022-12-11T19:23:59.915Z,99609.75
2022-12-11T19:26:01.882Z,99627.63
2022-12-11T19:28:04.436Z,99610.63
2022-12-11T19:30:06.699Z,99629.38
2022-12-11T19:32:08.868Z,99620.44
2022-12-11T19:34:10.649Z,99625.91
2022-12-11T19:36:19.828Z,99627.88
2022-12-11T19:38:21.846Z,99623.72
2022-12-11T19:40:23.577Z,99618.25
2022-12-11T19:42:26.630Z,99591.91
2022-12-11T19:44:28.451Z,99627.66
2022-12-11T19:46:30.198Z,99602.50
2022-12-11T19:48:32.214Z,99602.91
2022-12-11T19:50:36.204Z,99591.22
2022-12-11T19:52:42.855Z,99577.09
2022-12-11T19:54:47.640Z,99590.88
2022-12-11T19:56:49.786Z,99608.56
2022-12-11T19:58:52.113Z,99621.75
2022-12-11T20:00:54.401Z,99559.09
2022-12-11T20:02:59.252Z,99585.31
2022-12-11T20:05:00.934Z,99590.59
2022-12-11T20:07:02.705Z,99604.09
2022-12-11T20:09:07.078Z,99609.91
2022-12-11T20:11:15.837Z,99605.66
2022-12-11T20:13:19.474Z,99600.06
2022-12-11T20:15:21.277Z,99598.31
2022-12-11T20:17:23.183Z,99596.56
2022-12-11T20:19:24.899Z,99600.22
2022-12-11T20:21:26.840Z,99590.69
2022-12-11T20:23:28.786Z,99581.53
2022-12-11T20:25:30.606Z,99562.63
2022-12-11T20:27:32.453Z,99584.25
2022-12-11T20:29:34.194Z,99566.44
2022-12-11T20:31:36.968Z,99541.50
2022-12-11T20:33:39.158Z,99576.25
2022-12-11T20:35:41.214Z,99568.28
2022-12-11T20:37:42.924Z,99576.16
2022-12-11T20:39:44.767Z,99572.59
2022-12-11T20:41:46.632Z,99553.75
2022-12-11T20:43:48.848Z,99571.34
2022-12-11T20:45:51.077Z,99561.50
2022-12-11T20:47:52.942Z,99548.91
2022-12-11T20:49:54.684Z,99569.03
2022-12-11T20:51:56.420Z,99543.22
2022-12-11T20:53:59.241Z,99565.84
2022-12-11T20:56:02.124Z,99548.56
2022-12-11T20:58:04.005Z,99562.47
2022-12-11T21:00:06.415Z,99535.38
2022-12-11T21:02:08.840Z,99549.28
2022-12-11T21:04:11.111Z,99553.00
2022-12-11T21:06:39.348Z,99558.06
2022-12-11T21:08:41.059Z,99561.56
2022-12-11T21:10:44.792Z,99565.44
2022-12-11T21:12:46.512Z,99522.91
2022-12-11T21:14:48.207Z,99526.75
2022-12-11T21:16:50.387Z,99549.63
2022-12-11T21:18:52.114Z,99562.34
2022-12-11T21:20:56.875Z,99565.34
2022-12-11T21:22:58.728Z,99558.00
2022-12-11T21:25:00.432Z,99554.06
2022-12-11T21:27:02.140Z,99576.81
2022-12-11T21:29:04.056Z,99576.25
2022-12-11T21:31:08.853Z,99570.97
2022-12-11T21:33:10.737Z,99567.44
2022-12-11T21:35:12.984Z,99567.28
2022-12-11T21:37:14.948Z,99567.94
2022-12-11T21:39:16.634Z,99564.41
2022-12-11T21:41:21.792Z,99547.63
2022-12-11T21:43:24.391Z,99559.22
2022-12-11T21:45:59.329Z,99559.16
2022-12-11T21:47:48.215Z,99524.59
2022-12-11T21:49:49.939Z,99550.81
2022-12-11T21:51:51.632Z,99565.69
2022-12-11T21:53:53.686Z,99560.75
2022-12-11T21:55:55.673Z,99528.78
2022-12-11T21:57:57.396Z,99552.91
2022-12-11T21:59:59.275Z,99515.63
2022-12-11T22:02:01.232Z,99545.44
2022-12-11T22:04:04.502Z,99558.00
2022-12-11T22:06:06.417Z,99556.97
2022-12-11T22:08:08.284Z,99534.75
2022-12-11T22:10:10.437Z,99523.41
2022-12-11T22:12:22.980Z,99557.63
2022-12-11T22:14:24.843Z,99529.28
2022-12-11T22:16:26.908Z,99536.50
2022-12-11T22:18:28.665Z,99538.16
2022-12-11T22:20:30.638Z,99532.91
2022-12-11T22:22:32.753Z,99557.34
2022-12-11T22:24:34.453Z,99553.81
2022-12-11T22:26:36.264Z,99537.97
2022-12-11T22:28:38.027Z,99556.25
2022-12-11T22:30:39.822Z,99538.63
2022-12-11T22:32:41.758Z,99542.06
2022-12-11T22:34:43.547Z,99545.31
2022-12-11T22:36:45.342Z,99517.50
2022-12-11T22:38:47.703Z,99522.31
2022-12-11T22:40:49.564Z,99555.03
2022-12-11T22:42:54.811Z,99536.41
2022-12-11T22:44:56.663Z,99536.63
2022-12-11T22:46:58.383Z,99552.91
2022-12-11T22:49:00.078Z,99541.59
2022-12-11T22:51:05.588Z,99549.97
2022-12-11T22:53:07.499Z,99553.09
2022-12-11T22:55:09.460Z,99544.22
2022-12-11T22:57:11.270Z,99512.50
2022-12-11T22:59:13.539Z,99553.75
2022-12-11T23:01:18.333Z,99540.78
2022-12-11T23:03:20.332Z,99553.03
2022-12-11T23:05:22.127Z,99549.03
2022-12-11T23:07:23.971Z,99561.63
2022-12-11T23:09:25.944Z,99540.03
2022-12-11T23:11:34.082Z,99553.75
2022-12-11T23:13:35.952Z,99508.25
2022-12-11T23:15:37.648Z,99558.13
2022-12-11T23:17:39.563Z,99552.00
2022-12-11T23:19:41.688Z,99554.84
2022-12-11T23:21:43.639Z,99566.91
2022-12-11T23:23:45.763Z,99547.66
2022-12-11T23:25:47.603Z,99556.63
2022-12-11T23:27:49.601Z,99568.88
2022-12-11T23:29:51.377Z,99564.53
2022-12-11T23:31:53.422Z,99571.72
2022-12-11T23:33:55.096Z,99551.44
2022-12-11T23:35:57.998Z,99572.31
2022-12-11T23:37:59.853Z,99529.94
2022-12-11T23:40:01.534Z,99576.56
2022-12-11T23:42:03.267Z,99550.44
2022-12-11T23:44:05.278Z,99571.09
2022-12-11T23:46:17.302Z,99568.38
2022-12-11T23:48:19.190Z,99562.81
2022-12-11T23:50:21.060Z,99559.69
2022-12-11T23:52:22.752Z,99534.22
2022-12-11T23:54:24.531Z,99558.66
2022-12-11T23:56:29.320Z,99560.16
2022-12-11T23:58:31.017Z,99557.09
